Terminal Aerodrome Forecast
Issued by NWS Omaha/Valley, NE

Home | Current Version | Previous Version | Text Only | Print | Product List | Glossary Off
Versions: 1 2 3 4 5 6 7 8 9 10 11 12 13 14 15 16 17 18 19 20 21 22 23 24 25 26 27 28 29 30 31 32 33 34 35 36

000
FTUS43 KOAX 110223 AAA
TAFOFK
TAF AMD
KOFK 110223Z 1102/1124 12009KT P6SM SCT025 OVC080
     FM111100 VRB05KT 5SM BR SCT007 BKN012
     FM111400 31011KT P6SM BKN015 OVC090
     FM111800 32013G21KT P6SM OVC020
     FM112100 32016G24KT P6SM BKN090=

USA.gov is the U.S. government's official web portal to all federal, state and local government web resources and services.